Time;durP1;ratioP1;P1;durP2;ratioP2;P2;SDS_P1;SDS_P2;PMS_P1;PMS_P2;Temp;Humidity;BMP_temperature;BMP_pressure;BME280_temperature;BME280_humidity;BME280_pressure;Samples;Min_cycle;Max_cycle;Signal;HPM_P1;HPM_P2
2023/03/14 00:00:32;;;;;;;7.90;4.50;;;;;;;5.75;53.13;100451.13;106011;1251;65070;-59
2023/03/14 00:03:00;;;;;;;9.40;4.70;;;;;;;5.76;53.13;100449.70;105673;1254;59739;-58
2023/03/14 00:05:29;;;;;;;6.20;2.40;;;;;;;5.76;53.13;100450.52;105589;1251;59700;-59
2023/03/14 00:07:57;;;;;;;7.00;2.70;;;;;;;5.76;52.97;100449.64;105621;1251;65226;-58
2023/03/14 00:10:26;;;;;;;6.10;2.70;;;;;;;5.78;52.93;100446.45;105992;1256;62860;-60
2023/03/14 00:12:55;;;;;;;7.80;4.60;;;;;;;5.78;52.93;100446.10;105675;1251;64871;-58
2023/03/14 00:15:23;;;;;;;6.00;2.60;;;;;;;5.78;52.83;100445.40;105519;1251;59506;-58
2023/03/14 00:17:52;;;;;;;6.40;2.20;;;;;;;5.77;52.88;100445.77;105489;1250;59627;-59
2023/03/14 00:20:20;;;;;;;6.60;2.10;;;;;;;5.77;52.94;100443.71;105999;1251;64132;-58
2023/03/14 00:22:48;;;;;;;9.30;5.10;;;;;;;5.75;52.80;100439.83;105816;1256;61531;-58
2023/03/14 00:25:16;;;;;;;9.40;4.90;;;;;;;5.73;52.96;100433.67;105484;1251;65109;-59
2023/03/14 00:27:45;;;;;;;6.00;1.90;;;;;;;5.72;52.89;100424.33;105614;1251;59792;-58
2023/03/14 00:30:13;;;;;;;8.10;4.60;;;;;;;5.71;52.85;100421.80;105632;1251;59753;-59
2023/03/14 00:32:42;;;;;;;5.20;2.00;;;;;;;5.68;52.81;100418.45;105505;1251;65399;-59
2023/03/14 00:35:11;;;;;;;11.00;5.00;;;;;;;5.67;52.94;100420.09;105379;1251;62488;-57
2023/03/14 00:37:40;;;;;;;7.00;2.60;;;;;;;5.66;52.90;100417.55;105614;1251;64713;-57
2023/03/14 00:40:09;;;;;;;9.50;5.20;;;;;;;5.65;52.98;100414.64;105314;1253;59902;-58
2023/03/14 00:42:37;;;;;;;7.00;4.30;;;;;;;5.64;52.98;100414.21;105914;1257;59551;-57
2023/03/14 00:45:08;;;;;;;5.90;1.80;;;;;;;5.61;52.90;100407.58;105550;1251;67997;-58
2023/03/14 00:47:38;;;;;;;7.20;4.40;;;;;;;5.58;52.98;100401.14;105660;1251;62824;-58
2023/03/14 00:50:07;;;;;;;6.80;2.80;;;;;;;5.56;53.09;100403.17;105437;1251;64735;-58
2023/03/14 00:52:35;;;;;;;6.00;2.10;;;;;;;5.55;53.12;100399.95;105787;1251;60900;-56
2023/03/14 00:55:04;;;;;;;9.20;5.00;;;;;;;5.53;53.04;100396.23;105617;1251;60120;-56
2023/03/14 00:57:32;;;;;;;8.00;4.50;;;;;;;5.49;53.18;100395.61;105359;1251;73973;-57
2023/03/14 01:00:05;;;;;;;5.40;2.00;;;;;;;5.46;53.33;100391.55;105681;1254;61609;-56
2023/03/14 01:02:34;;;;;;;5.30;2.10;;;;;;;5.43;53.34;100387.61;105706;1254;63924;-56
2023/03/14 01:05:04;;;;;;;7.90;4.30;;;;;;;5.38;53.53;100383.66;105575;1251;59550;-55
2023/03/14 01:07:32;;;;;;;6.70;2.50;;;;;;;5.37;53.61;100384.05;105637;1255;59723;-56
2023/03/14 01:10:00;;;;;;;8.90;4.70;;;;;;;5.36;53.57;100384.52;105584;1257;65118;-57
2023/03/14 01:12:34;;;;;;;4.30;1.60;;;;;;;5.36;53.64;100386.92;105586;1251;62742;-56
2023/03/14 01:15:03;;;;;;;8.50;2.00;;;;;;;5.35;53.67;100386.98;105419;1251;65015;-57
2023/03/14 01:17:33;;;;;;;7.40;4.40;;;;;;;5.34;53.78;100386.66;105718;1253;59233;-56
2023/03/14 01:20:10;;;;;;;3.80;1.40;;;;;;;5.35;53.83;100391.66;105499;1251;60021;-56
2023/03/14 01:22:39;;;;;;;5.90;2.50;;;;;;;5.34;53.85;100389.81;105658;1251;65477;-56
2023/03/14 01:25:10;;;;;;;5.80;3.00;;;;;;;5.34;53.86;100387.06;105313;1251;62733;-58
2023/03/14 01:27:39;;;;;;;6.20;2.20;;;;;;;5.35;53.94;100384.73;105475;1251;65304;-57
2023/03/14 01:30:08;;;;;;;7.40;4.70;;;;;;;5.35;53.94;100383.83;105628;1255;59551;-58
2023/03/14 01:32:40;;;;;;;9.20;4.30;;;;;;;5.35;53.91;100381.78;105266;1251;59628;-57
2023/03/14 01:35:09;;;;;;;4.90;1.50;;;;;;;5.35;53.91;100384.58;105615;1252;65205;-56
2023/03/14 01:37:38;;;;;;;4.90;1.90;;;;;;;5.32;53.89;100387.84;105546;1251;62543;-57
2023/03/14 01:40:10;;;;;;;8.80;4.80;;;;;;;5.31;53.95;100390.54;106632;1251;64844;-56
2023/03/14 01:42:39;;;;;;;4.60;1.30;;;;;;;5.30;54.10;100388.86;105464;1254;59724;-59
2023/03/14 01:45:59;;;;;;;7.90;4.50;;;;;;;5.30;54.09;100389.37;105343;1251;59711;-58
2023/03/14 01:48:32;;;;;;;6.30;2.50;;;;;;;5.28;54.01;100388.80;105358;1251;65269;-61
2023/03/14 01:51:01;;;;;;;8.70;4.30;;;;;;;5.24;54.23;100392.13;105425;1251;62927;-60
2023/03/14 01:53:30;;;;;;;7.30;3.40;;;;;;;5.21;54.29;100395.08;105786;1251;64709;-59
2023/03/14 01:56:06;;;;;;;4.90;1.70;;;;;;;5.19;54.31;100395.59;105312;1251;59774;-50
2023/03/14 01:58:36;;;;;;;6.90;2.00;;;;;;;5.17;54.41;100395.02;105487;1251;59700;-50
2023/03/14 02:01:04;;;;;;;7.60;4.30;;;;;;;5.13;54.50;100391.01;105204;1259;65336;-51
2023/03/14 02:03:39;;;;;;;6.30;2.30;;;;;;;5.10;54.50;100384.06;105437;1253;62454;-50
2023/03/14 02:06:08;;;;;;;5.80;1.90;;;;;;;5.08;54.60;100388.20;105473;1251;65238;-49
2023/03/14 02:08:39;;;;;;;7.70;4.40;;;;;;;5.06;54.70;100386.79;105528;1251;59750;-50
2023/03/14 02:11:17;;;;;;;6.20;1.70;;;;;;;5.05;54.79;100386.15;105247;1251;59644;-50
2023/03/14 02:14:22;;;;;;;7.70;2.10;;;;;;;5.03;54.88;100384.30;105192;1258;65179;-50
2023/03/14 02:17:17;;;;;;;8.40;4.50;;;;;;;5.00;54.95;100377.16;105853;1251;62423;-50
2023/03/14 02:20:08;;;;;;;4.80;2.20;;;;;;;4.98;54.98;100375.02;105574;1254;65000;-54
2023/03/14 02:22:40;;;;;;;4.30;1.70;;;;;;;4.95;55.03;100375.54;105540;1256;61254;-52
2023/03/14 02:25:22;;;;;;;6.60;4.10;;;;;;;4.92;55.02;100381.64;105394;1252;59628;-52
2023/03/14 02:27:51;;;;;;;7.60;2.10;;;;;;;4.87;54.95;100383.13;105575;1257;64948;-50
2023/03/14 02:30:21;;;;;;;4.40;1.70;;;;;;;4.83;55.10;100386.65;105699;1251;62305;-51
2023/03/14 02:32:52;;;;;;;12.10;5.00;;;;;;;4.81;55.19;100390.25;106529;1251;63809;-50
2023/03/14 02:35:41;;;;;;;5.60;2.30;;;;;;;4.79;55.14;100392.24;105142;1258;59842;-54
2023/03/14 02:38:23;;;;;;;7.10;3.10;;;;;;;4.77;55.16;100390.63;105741;1251;59831;-52
2023/03/14 02:40:55;;;;;;;6.00;2.10;;;;;;;4.74;55.19;100387.86;105633;1251;64404;-52
2023/03/14 02:43:23;;;;;;;7.80;4.70;;;;;;;4.72;55.09;100385.20;105685;1251;62350;-48
2023/03/14 02:45:57;;;;;;;5.30;2.30;;;;;;;4.69;55.03;100384.81;105609;1251;65240;-49
2023/03/14 02:48:30;;;;;;;5.10;2.20;;;;;;;4.64;54.92;100383.34;105448;1251;59641;-50
2023/03/14 02:50:59;;;;;;;7.00;2.00;;;;;;;4.62;54.82;100384.34;105581;1251;59780;-51
2023/03/14 02:53:33;;;;;;;8.30;5.00;;;;;;;4.58;54.85;100389.58;105355;1251;65658;-52
2023/03/14 02:56:06;;;;;;;5.40;1.90;;;;;;;4.56;54.80;100391.10;105534;1251;62458;-50
2023/03/14 02:58:36;;;;;;;5.30;1.90;;;;;;;4.52;54.67;100387.45;105581;1257;63947;-52
2023/03/14 03:01:10;;;;;;;6.30;2.20;;;;;;;4.50;54.61;100385.14;105364;1254;59736;-50
2023/03/14 03:03:40;;;;;;;9.30;5.00;;;;;;;4.49;54.52;100392.70;105486;1251;59659;-49
2023/03/14 03:06:08;;;;;;;6.90;2.10;;;;;;;4.46;54.45;100397.69;105539;1251;64415;-49
2023/03/14 03:08:37;;;;;;;5.20;1.60;;;;;;;4.45;54.47;100394.98;105648;1252;62355;-50
2023/03/14 03:11:06;;;;;;;9.00;4.70;;;;;;;4.43;54.35;100395.95;105963;1254;64741;-51
2023/03/14 03:13:35;;;;;;;6.20;2.40;;;;;;;4.41;54.23;100396.10;105491;1254;59665;-50
2023/03/14 03:16:04;;;;;;;6.70;2.70;;;;;;;4.38;54.12;100392.42;105743;1251;59656;-49
2023/03/14 03:18:34;;;;;;;8.00;4.60;;;;;;;4.36;54.08;100399.13;105437;1251;65448;-50
2023/03/14 03:21:03;;;;;;;5.50;2.00;;;;;;;4.35;54.12;100402.31;105629;1251;62477;-50
2023/03/14 03:23:39;;;;;;;6.50;2.20;;;;;;;4.34;54.06;100399.75;105492;1251;65025;-49
2023/03/14 03:26:09;;;;;;;6.70;2.80;;;;;;;4.31;54.03;100396.77;105746;1251;59633;-51
2023/03/14 03:28:37;;;;;;;6.20;2.90;;;;;;;4.29;54.03;100388.20;105469;1251;61254;-50
2023/03/14 03:31:08;;;;;;;7.60;4.90;;;;;;;4.27;54.05;100385.86;105381;1257;65305;-49
2023/03/14 03:33:37;;;;;;;5.40;2.40;;;;;;;4.26;54.00;100384.73;105464;1251;62648;-50
2023/03/14 03:36:07;;;;;;;4.70;1.90;;;;;;;4.23;54.06;100390.73;105668;1251;65032;-50
2023/03/14 03:38:38;;;;;;;5.80;2.20;;;;;;;4.22;54.03;100390.13;105486;1251;60526;-50
2023/03/14 03:41:07;;;;;;;5.70;2.10;;;;;;;4.20;53.94;100386.73;105665;1251;60539;-49
2023/03/14 03:43:37;;;;;;;6.90;2.40;;;;;;;4.19;54.11;100384.74;105570;1255;66141;-49
2023/03/14 03:46:07;;;;;;;9.00;5.10;;;;;;;4.17;54.19;100380.84;106809;1254;62279;-49
2023/03/14 03:48:36;;;;;;;5.90;2.20;;;;;;;4.16;54.24;100381.61;105509;1257;63885;-49
2023/03/14 03:51:06;;;;;;;5.10;2.30;;;;;;;4.15;54.12;100385.32;105297;1251;60426;-49
2023/03/14 03:53:40;;;;;;;7.20;2.30;;;;;;;4.13;54.25;100384.36;105865;1255;60443;-49
2023/03/14 03:56:11;;;;;;;7.40;2.70;;;;;;;4.12;54.25;100382.52;105554;1256;66377;-50
2023/03/14 03:58:41;;;;;;;8.20;5.20;;;;;;;4.10;54.38;100383.30;105558;1257;63273;-49
2023/03/14 04:01:10;;;;;;;6.90;2.70;;;;;;;4.08;54.31;100377.70;105741;1255;64880;-49
2023/03/14 04:03:40;;;;;;;6.30;2.70;;;;;;;4.06;54.37;100379.88;105998;1254;60799;-50
2023/03/14 04:06:11;;;;;;;7.50;2.70;;;;;;;4.05;54.42;100384.45;105129;1251;61284;-49
2023/03/14 04:08:41;;;;;;;5.80;2.30;;;;;;;4.03;54.45;100381.24;105563;1254;66105;-50
2023/03/14 04:11:14;;;;;;;6.70;2.20;;;;;;;4.02;54.51;100377.33;105522;1257;62637;-49
2023/03/14 04:14:17;;;;;;;6.40;2.80;;;;;;;4.01;54.50;100377.36;106343;1251;65299;-49
2023/03/14 04:16:46;;;;;;;6.20;2.10;;;;;;;4.00;54.54;100375.15;105515;1251;60553;-50
2023/03/14 04:19:18;;;;;;;6.50;2.60;;;;;;;3.99;54.60;100373.13;105516;1251;60515;-51
2023/03/14 04:21:47;;;;;;;5.70;2.20;;;;;;;3.98;54.55;100375.95;105499;1252;66442;-49
2023/03/14 04:24:16;;;;;;;7.70;4.80;;;;;;;3.98;54.61;100376.50;105478;1251;62742;-49
2023/03/14 04:26:48;;;;;;;5.90;1.90;;;;;;;3.97;54.56;100380.34;106550;1255;63739;-49
2023/03/14 04:29:17;;;;;;;6.10;2.60;;;;;;;3.97;54.61;100378.08;105496;1251;60463;-50
2023/03/14 04:31:47;;;;;;;5.90;2.10;;;;;;;3.94;54.76;100378.77;106115;1257;60481;-50
2023/03/14 04:34:20;;;;;;;9.80;2.60;;;;;;;3.92;54.68;100376.25;105568;1256;66161;-52
2023/03/14 04:36:53;;;;;;;5.90;2.60;;;;;;;3.93;54.78;100376.41;105526;1251;62697;-51
2023/03/14 04:39:27;;;;;;;6.20;2.90;;;;;;;3.94;54.79;100373.75;105647;1251;64056;-50
2023/03/14 04:42:05;;;;;;;7.90;4.80;;;;;;;3.94;54.87;100371.67;105556;1251;60443;-50
2023/03/14 04:44:34;;;;;;;6.30;2.00;;;;;;;3.95;54.81;100369.88;105405;1251;60559;-50
2023/03/14 04:47:03;;;;;;;5.50;2.30;;;;;;;3.96;54.88;100367.77;105612;1254;66030;-49
2023/03/14 04:49:33;;;;;;;6.50;2.50;;;;;;;3.97;54.84;100365.26;107605;1256;63741;-50
2023/03/14 04:52:02;;;;;;;6.10;2.90;;;;;;;3.97;54.89;100362.64;105751;1254;65052;-57
2023/03/14 04:54:32;;;;;;;6.70;2.30;;;;;;;3.99;54.88;100364.98;106019;1251;60600;-57
2023/03/14 04:57:02;;;;;;;5.50;2.30;;;;;;;4.02;54.78;100363.77;105580;1251;60427;-57
2023/03/14 04:59:32;;;;;;;10.30;4.50;;;;;;;4.05;54.80;100365.54;105617;1254;65998;-56
2023/03/14 05:02:15;;;;;;;4.90;1.90;;;;;;;4.08;54.62;100361.71;105635;1251;62692;-57
2023/03/14 05:04:58;;;;;;;7.70;2.30;;;;;;;4.12;54.64;100350.77;109381;1251;65023;-58
2023/03/14 05:07:43;;;;;;;5.50;2.20;;;;;;;4.17;54.54;100340.58;109286;1256;58212;-57
2023/03/14 05:10:34;;;;;;;4.90;1.80;;;;;;;4.24;54.42;100333.42;109354;1251;58069;-58
2023/03/14 05:13:29;;;;;;;6.70;1.80;;;;;;;4.32;54.23;100330.58;105728;1256;66192;-56
2023/03/14 05:16:18;;;;;;;6.40;2.90;;;;;;;4.37;54.19;100324.36;105668;1256;61626;-57
2023/03/14 05:18:49;;;;;;;6.30;1.70;;;;;;;4.42;54.07;100318.55;105769;1251;65080;-56
2023/03/14 05:21:36;;;;;;;7.20;3.40;;;;;;;4.47;53.95;100315.15;105631;1251;60504;-57
2023/03/14 05:24:31;;;;;;;4.40;1.80;;;;;;;4.53;53.95;100314.48;105313;1251;60421;-57
2023/03/14 05:27:11;;;;;;;6.00;1.90;;;;;;;4.58;53.83;100315.58;107401;1252;65921;-57
2023/03/14 05:30:06;;;;;;;4.80;1.70;;;;;;;4.64;53.60;100315.04;106142;1254;62751;-54
2023/03/14 05:33:03;;;;;;;9.90;4.50;;;;;;;4.72;53.28;100317.55;108819;1260;64070;-55
2023/03/14 05:35:57;;;;;;;6.10;2.10;;;;;;;4.80;52.98;100310.67;105703;1251;60506;-55
2023/03/14 05:38:57;;;;;;;6.00;2.10;;;;;;;4.89;52.77;100312.27;105427;1257;60461;-55
2023/03/14 05:41:26;;;;;;;5.70;1.90;;;;;;;4.96;52.40;100314.43;105783;1256;66267;-55
2023/03/14 05:44:24;;;;;;;4.50;1.80;;;;;;;5.04;52.16;100317.29;105795;1251;62610;-54
2023/03/14 05:47:11;;;;;;;6.40;1.90;;;;;;;5.13;52.00;100326.50;105769;1252;64627;-55
2023/03/14 05:50:02;;;;;;;7.10;3.60;;;;;;;5.23;51.76;100337.60;105431;1251;60597;-55
2023/03/14 05:52:44;;;;;;;5.50;1.60;;;;;;;5.33;51.52;100337.53;105721;1251;60316;-56
2023/03/14 05:55:34;;;;;;;4.90;1.90;;;;;;;5.44;51.13;100345.80;105582;1256;66126;-55
2023/03/14 05:58:21;;;;;;;7.40;4.30;;;;;;;5.55;50.92;100355.89;105592;1251;62538;-56
2023/03/14 06:01:10;;;;;;;5.80;2.10;;;;;;;5.66;50.57;100352.95;105372;1252;65286;-55
2023/03/14 06:04:01;;;;;;;8.50;4.20;;;;;;;5.77;50.32;100348.50;105700;1254;60338;-54
2023/03/14 06:06:30;;;;;;;4.30;1.50;;;;;;;5.87;50.07;100350.16;105781;1251;60545;-55
2023/03/14 06:08:59;;;;;;;5.70;2.00;;;;;;;5.95;49.77;100347.92;105809;1251;66220;-57
2023/03/14 06:11:34;;;;;;;6.80;3.90;;;;;;;6.03;49.41;100344.48;105434;1251;62778;-56
2023/03/14 06:14:04;;;;;;;7.10;2.10;;;;;;;6.12;49.25;100355.11;105522;1252;65003;-56
2023/03/14 06:16:32;;;;;;;4.20;2.00;;;;;;;6.21;49.23;100365.90;105638;1251;62297;-57
2023/03/14 06:19:03;;;;;;;5.50;2.10;;;;;;;6.28;48.93;100365.23;105571;1257;60503;-57
2023/03/14 06:21:32;;;;;;;7.90;4.20;;;;;;;6.33;48.62;100365.99;105477;1256;66101;-56
2023/03/14 06:24:00;;;;;;;6.10;2.00;;;;;;;6.37;48.72;100367.50;106096;1251;62858;-56
2023/03/14 06:26:30;;;;;;;6.00;1.90;;;;;;;6.39;48.73;100365.80;106047;1252;64820;-55
2023/03/14 06:29:03;;;;;;;8.40;4.80;;;;;;;6.42;48.55;100367.17;105624;1251;60419;-57
2023/03/14 06:31:32;;;;;;;9.60;4.80;;;;;;;6.45;48.54;100364.16;105332;1256;59525;-57
2023/03/14 06:34:04;;;;;;;5.50;2.30;;;;;;;6.49;48.49;100366.05;105530;1254;67017;-56
2023/03/14 06:36:33;;;;;;;11.30;5.40;;;;;;;6.52;48.35;100363.23;105928;1251;63224;-55
2023/03/14 06:39:02;;;;;;;7.20;4.00;;;;;;;6.58;48.61;100369.33;105742;1251;64991;-58
2023/03/14 06:41:32;;;;;;;6.40;2.40;;;;;;;6.63;48.69;100365.84;105735;1251;60446;-55
2023/03/14 06:44:02;;;;;;;9.10;5.00;;;;;;;6.70;48.61;100367.84;106933;1251;60457;-56
2023/03/14 06:46:31;;;;;;;6.70;3.70;;;;;;;6.75;48.33;100369.84;109349;1254;66040;-56
2023/03/14 06:48:59;;;;;;;7.10;2.20;;;;;;;6.79;48.15;100373.91;106603;1252;62411;-56
2023/03/14 06:51:29;;;;;;;6.20;2.00;;;;;;;6.83;47.97;100352.56;105477;1251;64931;-55
2023/03/14 06:54:00;;;;;;;8.70;4.70;;;;;;;6.90;48.15;100353.52;105577;1254;60572;-58
2023/03/14 06:56:30;;;;;;;10.30;4.90;;;;;;;6.98;47.86;100348.97;105250;1251;61556;-57
2023/03/14 06:59:00;;;;;;;7.40;4.50;;;;;;;7.05;47.77;100347.60;105928;1259;66785;-56
2023/03/14 07:01:32;;;;;;;11.00;3.60;;;;;;;7.12;47.83;100344.20;105473;1256;61849;-56
2023/03/14 07:04:06;;;;;;;;;;;;;;;7.20;47.77;100339.28;105539;1257;64818;-56
2023/03/14 07:06:43;;;;;;;9.50;4.50;;;;;;;7.30;47.40;100343.58;105620;1251;60446;-55
2023/03/14 07:09:12;;;;;;;7.50;4.40;;;;;;;7.38;47.39;100343.72;105768;1254;60522;-57
2023/03/14 07:11:43;;;;;;;11.50;4.60;;;;;;;7.44;47.11;100332.27;105488;1257;65882;-56
2023/03/14 07:14:14;;;;;;;8.80;5.00;;;;;;;7.53;46.98;100318.27;105927;1255;61803;-56
2023/03/14 07:16:43;;;;;;;9.20;4.70;;;;;;;7.59;46.78;100313.27;105490;1256;64804;-57
2023/03/14 07:19:11;;;;;;;9.80;4.70;;;;;;;7.66;46.55;100312.30;105561;1251;60446;-56
2023/03/14 07:21:41;;;;;;;15.30;4.50;;;;;;;7.73;46.36;100301.70;105887;1251;60447;-55
2023/03/14 07:24:13;;;;;;;9.60;4.90;;;;;;;7.81;46.51;100297.82;105639;1257;66563;-57
2023/03/14 07:26:42;;;;;;;8.80;4.90;;;;;;;7.90;46.26;100297.50;105590;1251;62651;-57
2023/03/14 07:29:13;;;;;;;9.40;5.30;;;;;;;8.00;45.88;100301.73;105888;1252;65057;-57
2023/03/14 07:31:41;;;;;;;9.10;5.30;;;;;;;8.09;45.84;100294.30;105761;1251;60532;-57
2023/03/14 07:34:12;;;;;;;10.30;5.90;;;;;;;8.18;45.85;100292.23;105857;1259;60472;-57
2023/03/14 07:36:42;;;;;;;10.50;5.70;;;;;;;8.26;45.31;100289.21;105721;1256;66087;-58
2023/03/14 07:39:16;;;;;;;8.60;4.90;;;;;;;8.32;44.87;100297.35;105516;1251;62632;-56
2023/03/14 07:42:14;;;;;;;10.90;5.20;;;;;;;8.39;44.78;100282.92;105469;1251;64868;-55
2023/03/14 07:45:02;;;;;;;9.90;5.20;;;;;;;8.44;44.68;100279.73;105651;1255;60450;-54
2023/03/14 07:47:31;;;;;;;6.10;1.90;;;;;;;8.50;44.54;100281.61;105697;1257;60530;-55
2023/03/14 07:50:00;;;;;;;11.50;5.00;;;;;;;8.54;44.60;100285.84;105622;1256;66012;-55
2023/03/14 07:52:29;;;;;;;8.40;4.60;;;;;;;8.57;44.27;100279.52;105801;1253;62329;-56
2023/03/14 07:54:57;;;;;;;8.20;4.70;;;;;;;8.59;44.15;100276.04;105627;1252;65022;-57
2023/03/14 07:57:29;;;;;;;9.80;5.50;;;;;;;8.63;44.31;100278.56;105602;1251;60351;-55
2023/03/14 07:59:57;;;;;;;9.40;4.80;;;;;;;8.68;44.42;100279.05;105696;1251;60450;-57
2023/03/14 08:02:27;;;;;;;18.00;5.90;;;;;;;8.73;44.30;100279.51;105829;1256;66119;-56
2023/03/14 08:04:56;;;;;;;9.20;4.70;;;;;;;8.82;44.34;100264.77;105616;1256;62648;-58
2023/03/14 08:07:24;;;;;;;9.00;4.50;;;;;;;8.89;44.32;100259.83;105535;1251;65649;-57
2023/03/14 08:09:53;;;;;;;9.90;4.70;;;;;;;8.97;44.07;100262.77;105624;1257;60421;-57
2023/03/14 08:12:22;;;;;;;10.60;4.80;;;;;;;9.01;43.75;100266.62;105644;1251;60476;-57
2023/03/14 08:14:51;;;;;;;9.40;4.60;;;;;;;9.04;43.83;100263.42;105598;1256;66225;-56
2023/03/14 08:17:19;;;;;;;8.70;4.00;;;;;;;9.10;44.03;100274.70;105595;1251;62489;-57
2023/03/14 08:19:48;;;;;;;9.50;4.70;;;;;;;9.19;44.20;100276.70;105618;1257;65016;-56
2023/03/14 08:22:16;;;;;;;11.30;6.40;;;;;;;9.26;43.80;100262.13;105537;1252;60442;-58
2023/03/14 08:24:50;;;;;;;10.60;5.00;;;;;;;9.32;43.40;100264.83;105593;1256;60526;-58
2023/03/14 08:27:18;;;;;;;10.80;5.40;;;;;;;9.36;43.22;100263.81;105759;1255;64968;-58
2023/03/14 08:29:47;;;;;;;9.30;4.10;;;;;;;9.40;43.20;100272.81;105758;1254;62638;-56
2023/03/14 08:32:16;;;;;;;9.70;5.50;;;;;;;9.45;43.60;100278.89;105546;1255;65550;-56
2023/03/14 08:34:44;;;;;;;11.40;5.10;;;;;;;9.51;43.41;100279.10;105734;1251;60905;-57
2023/03/14 08:37:16;;;;;;;8.80;4.70;;;;;;;9.59;43.53;100273.40;105709;1252;60535;-56
2023/03/14 08:39:54;;;;;;;8.30;4.40;;;;;;;9.68;43.69;100274.13;105988;1252;64903;-56
2023/03/14 08:42:22;;;;;;;12.70;5.70;;;;;;;9.78;43.54;100274.35;106328;1257;61536;-57
2023/03/14 08:44:51;;;;;;;14.60;6.70;;;;;;;9.87;43.04;100270.58;105713;1256;64998;-57
2023/03/14 08:47:20;;;;;;;12.20;5.90;;;;;;;9.91;42.84;100261.49;105691;1256;60454;-58
2023/03/14 08:49:49;;;;;;;8.70;4.60;;;;;;;9.92;42.80;100253.02;105728;1252;60348;-57
2023/03/14 08:52:18;;;;;;;9.80;4.70;;;;;;;9.94;43.44;100250.39;105625;1257;64997;-57
2023/03/14 08:54:49;;;;;;;9.50;4.50;;;;;;;9.98;43.57;100252.13;105655;1257;62675;-56
2023/03/14 08:57:17;;;;;;;11.40;4.90;;;;;;;10.05;43.44;100242.63;105790;1257;65027;-57
2023/03/14 08:59:46;;;;;;;9.00;4.30;;;;;;;10.11;43.43;100254.79;105673;1251;60419;-59
2023/03/14 09:02:14;;;;;;;9.30;4.30;;;;;;;10.15;43.73;100250.98;105684;1251;60555;-56
2023/03/14 09:04:42;;;;;;;8.40;4.30;;;;;;;10.20;44.02;100246.92;105598;1256;68176;-56
2023/03/14 09:07:11;;;;;;;6.30;4.00;;;;;;;10.25;43.78;100245.77;105742;1257;62790;-57
2023/03/14 09:09:42;;;;;;;10.10;4.70;;;;;;;10.29;43.64;100248.14;105638;1255;65158;-57
2023/03/14 09:12:10;;;;;;;11.40;5.10;;;;;;;10.24;43.06;100237.97;105638;1256;61287;-56
2023/03/14 09:14:41;;;;;;;13.60;5.50;;;;;;;10.20;43.47;100245.29;105641;1255;60505;-57
2023/03/14 09:17:10;;;;;;;8.40;4.30;;;;;;;10.20;43.87;100242.86;105725;1256;66660;-57
2023/03/14 09:19:38;;;;;;;6.80;4.00;;;;;;;10.24;44.19;100237.61;105611;1252;62609;-56
2023/03/14 09:22:07;;;;;;;6.70;4.00;;;;;;;10.31;44.20;100233.56;105802;1257;65059;-57
2023/03/14 09:24:36;;;;;;;8.90;3.40;;;;;;;10.40;43.98;100237.06;105519;1255;60914;-58
2023/03/14 09:27:04;;;;;;;9.30;4.30;;;;;;;10.48;43.85;100234.30;105667;1251;60443;-55
2023/03/14 09:29:34;;;;;;;9.40;4.10;;;;;;;10.55;43.66;100233.91;105511;1255;64888;-56
2023/03/14 09:32:02;;;;;;;9.80;4.00;;;;;;;10.59;43.41;100236.77;105778;1257;62358;-56
2023/03/14 09:34:36;;;;;;;7.20;3.80;;;;;;;10.62;43.62;100240.19;105527;1256;65226;-56
2023/03/14 09:37:05;;;;;;;6.60;3.30;;;;;;;10.67;44.12;100239.06;105636;1251;60442;-58
2023/03/14 09:39:33;;;;;;;6.40;3.80;;;;;;;10.76;44.25;100227.12;105724;1251;60437;-58
2023/03/14 09:42:04;;;;;;;6.50;3.80;;;;;;;10.86;43.89;100224.67;105715;1256;65298;-59
2023/03/14 09:44:39;;;;;;;7.70;4.00;;;;;;;10.99;43.59;100228.18;105555;1256;62406;-56
2023/03/14 09:47:11;;;;;;;7.00;4.20;;;;;;;11.12;43.32;100229.20;105900;1256;64953;-56
2023/03/14 09:49:40;;;;;;;7.90;4.30;;;;;;;11.21;41.75;100225.75;105418;1257;60599;-57
2023/03/14 09:52:46;;;;;;;8.80;4.60;;;;;;;11.26;41.59;100224.13;105638;1257;60360;-57
2023/03/14 09:55:22;;;;;;;10.60;4.50;;;;;;;11.33;41.03;100221.23;105600;1257;65246;-54
2023/03/14 09:57:54;;;;;;;8.70;4.50;;;;;;;11.39;40.53;100214.29;105686;1251;62651;-52
2023/03/14 10:00:25;;;;;;;8.60;4.20;;;;;;;11.44;40.61;100212.95;105470;1260;66263;-52
2023/03/14 10:03:14;;;;;;;8.20;4.10;;;;;;;11.52;41.22;100206.61;105499;1256;61728;-54
2023/03/14 10:05:43;;;;;;;10.10;4.50;;;;;;;11.64;41.30;100206.85;105482;1251;60921;-58
2023/03/14 10:08:13;;;;;;;6.70;4.00;;;;;;;11.73;40.64;100203.22;105574;1256;66175;-60
2023/03/14 10:10:42;;;;;;;7.60;3.80;;;;;;;11.80;39.81;100199.60;105661;1251;62466;-58
2023/03/14 10:13:10;;;;;;;7.40;3.70;;;;;;;11.84;39.19;100193.77;107371;1251;65292;-58
2023/03/14 10:15:39;;;;;;;7.20;3.50;;;;;;;11.88;39.27;100202.63;105663;1256;60556;-57
2023/03/14 10:18:12;;;;;;;7.70;3.70;;;;;;;11.93;40.08;100203.98;105644;1257;60546;-56
2023/03/14 10:20:45;;;;;;;9.00;4.60;;;;;;;12.02;39.89;100192.73;105804;1252;65307;-57
2023/03/14 10:23:15;;;;;;;10.60;4.60;;;;;;;12.14;39.59;100191.22;105581;1255;61768;-57
2023/03/14 10:26:08;;;;;;;8.20;4.20;;;;;;;12.22;39.56;100186.23;105633;1258;65098;-56
2023/03/14 10:28:47;;;;;;;8.90;4.10;;;;;;;12.32;39.31;100188.40;105586;1251;61758;-58
2023/03/14 10:31:24;;;;;;;10.60;3.80;;;;;;;12.40;39.37;100189.01;105650;1257;60555;-57
2023/03/14 10:34:03;;;;;;;6.10;3.30;;;;;;;12.49;38.95;100184.36;105551;1251;65229;-59
2023/03/14 10:36:33;;;;;;;8.30;4.20;;;;;;;12.56;38.52;100167.38;105775;1251;62658;-57
2023/03/14 10:39:22;;;;;;;7.70;3.90;;;;;;;12.58;38.05;100164.55;105687;1251;64224;-57
2023/03/14 10:41:53;;;;;;;7.50;3.50;;;;;;;12.56;37.85;100161.33;105546;1251;60532;-59
2023/03/14 10:44:23;;;;;;;9.70;3.70;;;;;;;12.56;37.38;100159.27;105663;1253;60443;-58
2023/03/14 10:47:19;;;;;;;6.40;3.00;;;;;;;12.57;37.49;100157.57;105552;1257;65892;-60
2023/03/14 10:49:54;;;;;;;5.20;2.60;;;;;;;12.62;37.30;100155.70;105565;1256;63019;-57
2023/03/14 10:52:26;;;;;;;9.10;3.60;;;;;;;12.68;36.84;100154.13;105712;1257;65199;-58
2023/03/14 10:55:18;;;;;;;8.10;3.40;;;;;;;12.75;36.49;100147.14;106067;1257;60478;-58
2023/03/14 10:57:47;;;;;;;6.10;3.10;;;;;;;12.78;36.07;100140.69;105694;1256;60529;-57
2023/03/14 11:00:23;;;;;;;8.80;3.30;;;;;;;12.79;35.82;100148.64;106316;1251;65985;-57
2023/03/14 11:03:10;;;;;;;10.60;3.10;;;;;;;12.79;35.50;100137.60;105576;1251;62685;-60
2023/03/14 11:05:58;;;;;;;6.90;2.70;;;;;;;12.79;35.86;100142.22;105593;1260;64833;-57
2023/03/14 11:08:48;;;;;;;6.50;2.60;;;;;;;12.82;36.37;100149.44;105522;1251;60614;-58
2023/03/14 11:11:24;;;;;;;6.30;2.90;;;;;;;12.89;35.52;100138.93;105720;1256;60578;-57
2023/03/14 11:14:08;;;;;;;8.70;2.90;;;;;;;12.93;35.25;100139.48;105587;1257;65074;-60
2023/03/14 11:16:44;;;;;;;9.10;2.80;;;;;;;12.96;35.05;100141.33;105706;1256;62368;-59
2023/03/14 11:19:17;;;;;;;4.30;1.70;;;;;;;12.94;34.25;100131.77;105520;1258;65118;-58
2023/03/14 11:21:58;;;;;;;7.10;2.30;;;;;;;12.95;34.80;100128.55;105548;1252;60598;-57
2023/03/14 11:24:48;;;;;;;7.20;2.40;;;;;;;13.04;34.74;100133.35;105649;1257;60462;-58
2023/03/14 11:27:45;;;;;;;8.90;2.40;;;;;;;13.11;33.23;100125.27;105605;1256;66232;-58
2023/03/14 11:30:19;;;;;;;11.10;3.00;;;;;;;13.14;33.18;100114.79;105463;1251;62715;-59
2023/03/14 11:32:57;;;;;;;6.00;2.50;;;;;;;13.17;33.26;100103.52;105590;1258;65031;-57
2023/03/14 11:35:41;;;;;;;6.00;2.10;;;;;;;13.22;33.24;100101.64;105695;1252;60423;-55
2023/03/14 11:41:33;;;;;;;9.60;2.10;;;;;;;13.40;33.85;100095.73;102410;1295;600406;-55
2023/03/14 11:44:24;;;;;;;7.40;2.50;;;;;;;13.66;33.48;100091.71;104938;1264;59324;-54
2023/03/14 11:46:57;;;;;;;4.70;1.80;;;;;;;13.77;33.46;100097.51;104714;1264;59380;-53
2023/03/14 11:49:35;;;;;;;4.80;2.00;;;;;;;13.87;33.49;100091.34;104675;1271;65238;-57
2023/03/14 11:52:05;;;;;;;;;;;;;;;14.00;33.42;100084.66;104841;1265;62641;-60
2023/03/14 11:54:46;;;;;;;4.60;1.90;;;;;;;14.09;33.02;100079.13;105067;1266;180492;-59